sensor_id;sensor_type;location;lat;lon;timestamp;temperature;humidity
13642;DHT22;6894;52.196;9.904;2023-05-07T00:00:20;10.60;99.90
13642;DHT22;6894;52.196;9.904;2023-05-07T00:02:47;10.60;99.90
13642;DHT22;6894;52.196;9.904;2023-05-07T00:05:14;10.60;99.90
13642;DHT22;6894;52.196;9.904;2023-05-07T00:07:40;10.70;99.90
13642;DHT22;6894;52.196;9.904;2023-05-07T00:10:08;10.70;99.90
13642;DHT22;6894;52.196;9.904;2023-05-07T00:12:37;10.60;99.90
13642;DHT22;6894;52.196;9.904;2023-05-07T00:15:07;10.70;99.90
13642;DHT22;6894;52.196;9.904;2023-05-07T00:17:34;10.60;99.90
13642;DHT22;6894;52.196;9.904;2023-05-07T00:20:00;10.60;99.90
13642;DHT22;6894;52.196;9.904;2023-05-07T00:22:27;10.60;99.90
13642;DHT22;6894;52.196;9.904;2023-05-07T00:24:55;10.50;99.90
13642;DHT22;6894;52.196;9.904;2023-05-07T00:27:22;10.60;99.90
13642;DHT22;6894;52.196;9.904;2023-05-07T00:29:49;10.50;99.90
13642;DHT22;6894;52.196;9.904;2023-05-07T00:32:17;10.50;99.90
13642;DHT22;6894;52.196;9.904;2023-05-07T00:34:44;10.50;99.90
13642;DHT22;6894;52.196;9.904;2023-05-07T00:37:10;10.50;99.90
13642;DHT22;6894;52.196;9.904;2023-05-07T00:39:37;10.50;99.90
13642;DHT22;6894;52.196;9.904;2023-05-07T00:42:04;10.40;99.90
13642;DHT22;6894;52.196;9.904;2023-05-07T00:44:31;10.40;99.90
13642;DHT22;6894;52.196;9.904;2023-05-07T00:46:58;10.40;99.90
13642;DHT22;6894;52.196;9.904;2023-05-07T00:49:35;10.40;99.90
13642;DHT22;6894;52.196;9.904;2023-05-07T00:52:04;10.40;99.90
13642;DHT22;6894;52.196;9.904;2023-05-07T00:54:32;10.40;99.90
13642;DHT22;6894;52.196;9.904;2023-05-07T00:56:59;10.40;99.90
13642;DHT22;6894;52.196;9.904;2023-05-07T00:59:27;10.40;99.90
13642;DHT22;6894;52.196;9.904;2023-05-07T01:01:54;10.30;99.90
13642;DHT22;6894;52.196;9.904;2023-05-07T01:04:20;10.30;99.90
13642;DHT22;6894;52.196;9.904;2023-05-07T01:06:49;10.30;99.90
13642;DHT22;6894;52.196;9.904;2023-05-07T01:09:16;10.30;99.90
13642;DHT22;6894;52.196;9.904;2023-05-07T01:11:44;10.30;99.90
13642;DHT22;6894;52.196;9.904;2023-05-07T01:14:11;10.30;99.90
13642;DHT22;6894;52.196;9.904;2023-05-07T01:16:37;10.30;99.90
13642;DHT22;6894;52.196;9.904;2023-05-07T01:19:07;10.30;99.90
13642;DHT22;6894;52.196;9.904;2023-05-07T01:21:37;10.20;99.90
13642;DHT22;6894;52.196;9.904;2023-05-07T01:24:06;10.20;99.90
13642;DHT22;6894;52.196;9.904;2023-05-07T01:26:32;10.20;99.90
13642;DHT22;6894;52.196;9.904;2023-05-07T01:28:59;10.20;99.90
13642;DHT22;6894;52.196;9.904;2023-05-07T01:31:26;10.20;99.90
13642;DHT22;6894;52.196;9.904;2023-05-07T01:33:54;10.10;99.90
13642;DHT22;6894;52.196;9.904;2023-05-07T01:36:22;10.10;99.90
13642;DHT22;6894;52.196;9.904;2023-05-07T01:38:52;10.20;99.90
13642;DHT22;6894;52.196;9.904;2023-05-07T01:41:20;10.10;99.90
13642;DHT22;6894;52.196;9.904;2023-05-07T01:43:48;10.20;99.90
13642;DHT22;6894;52.196;9.904;2023-05-07T01:46:17;10.10;99.90
13642;DHT22;6894;52.196;9.904;2023-05-07T01:48:45;10.10;99.90
13642;DHT22;6894;52.196;9.904;2023-05-07T01:51:12;10.20;99.90
13642;DHT22;6894;52.196;9.904;2023-05-07T01:53:39;10.10;99.90
13642;DHT22;6894;52.196;9.904;2023-05-07T01:56:07;10.10;99.90
13642;DHT22;6894;52.196;9.904;2023-05-07T01:58:35;10.10;99.90
13642;DHT22;6894;52.196;9.904;2023-05-07T02:01:02;10.10;99.90
13642;DHT22;6894;52.196;9.904;2023-05-07T02:03:29;10.10;99.90
13642;DHT22;6894;52.196;9.904;2023-05-07T02:05:56;10.20;99.90
13642;DHT22;6894;52.196;9.904;2023-05-07T02:08:22;10.10;99.90
13642;DHT22;6894;52.196;9.904;2023-05-07T02:10:49;10.10;99.90
13642;DHT22;6894;52.196;9.904;2023-05-07T02:13:16;10.20;99.90
13642;DHT22;6894;52.196;9.904;2023-05-07T02:15:45;10.20;99.90
13642;DHT22;6894;52.196;9.904;2023-05-07T02:18:16;10.10;99.90
13642;DHT22;6894;52.196;9.904;2023-05-07T02:20:43;10.20;99.90
13642;DHT22;6894;52.196;9.904;2023-05-07T02:23:09;10.20;99.90
13642;DHT22;6894;52.196;9.904;2023-05-07T02:25:36;10.20;99.90
13642;DHT22;6894;52.196;9.904;2023-05-07T02:28:03;10.20;99.90
13642;DHT22;6894;52.196;9.904;2023-05-07T02:30:30;10.20;99.90
13642;DHT22;6894;52.196;9.904;2023-05-07T02:32:58;10.10;99.90
13642;DHT22;6894;52.196;9.904;2023-05-07T02:35:25;10.20;99.90
13642;DHT22;6894;52.196;9.904;2023-05-07T02:37:52;10.10;99.90
13642;DHT22;6894;52.196;9.904;2023-05-07T02:40:19;10.20;99.90
13642;DHT22;6894;52.196;9.904;2023-05-07T02:42:45;10.20;99.90
13642;DHT22;6894;52.196;9.904;2023-05-07T02:45:12;10.10;99.90
13642;DHT22;6894;52.196;9.904;2023-05-07T02:47:40;10.20;99.90
13642;DHT22;6894;52.196;9.904;2023-05-07T02:50:08;10.10;99.90
13642;DHT22;6894;52.196;9.904;2023-05-07T02:52:35;10.10;99.90
13642;DHT22;6894;52.196;9.904;2023-05-07T02:55:02;10.20;99.90
13642;DHT22;6894;52.196;9.904;2023-05-07T02:57:29;10.10;99.90
13642;DHT22;6894;52.196;9.904;2023-05-07T02:59:57;10.10;99.90
13642;DHT22;6894;52.196;9.904;2023-05-07T03:02:24;10.10;99.90
13642;DHT22;6894;52.196;9.904;2023-05-07T03:04:51;10.10;99.90
13642;DHT22;6894;52.196;9.904;2023-05-07T03:07:19;10.10;99.90
13642;DHT22;6894;52.196;9.904;2023-05-07T03:09:46;10.10;99.90
13642;DHT22;6894;52.196;9.904;2023-05-07T03:12:13;10.10;99.90
13642;DHT22;6894;52.196;9.904;2023-05-07T03:14:39;10.10;99.90
13642;DHT22;6894;52.196;9.904;2023-05-07T03:17:06;10.10;99.90
13642;DHT22;6894;52.196;9.904;2023-05-07T03:19:33;10.10;99.90
13642;DHT22;6894;52.196;9.904;2023-05-07T03:21:59;10.10;99.90
13642;DHT22;6894;52.196;9.904;2023-05-07T03:24:28;10.10;99.90
13642;DHT22;6894;52.196;9.904;2023-05-07T03:26:54;10.10;99.90
13642;DHT22;6894;52.196;9.904;2023-05-07T03:29:23;10.10;99.90
13642;DHT22;6894;52.196;9.904;2023-05-07T03:31:49;10.00;99.90
13642;DHT22;6894;52.196;9.904;2023-05-07T03:34:16;10.10;99.90
13642;DHT22;6894;52.196;9.904;2023-05-07T03:36:47;10.00;99.90
13642;DHT22;6894;52.196;9.904;2023-05-07T03:39:14;10.00;99.90
13642;DHT22;6894;52.196;9.904;2023-05-07T03:41:42;10.00;99.90
13642;DHT22;6894;52.196;9.904;2023-05-07T03:44:09;10.10;99.90
13642;DHT22;6894;52.196;9.904;2023-05-07T03:46:35;10.10;99.90
13642;DHT22;6894;52.196;9.904;2023-05-07T03:49:02;10.00;99.90
13642;DHT22;6894;52.196;9.904;2023-05-07T03:51:29;10.00;99.90
13642;DHT22;6894;52.196;9.904;2023-05-07T03:53:56;10.00;99.90
13642;DHT22;6894;52.196;9.904;2023-05-07T03:56:23;10.00;99.90
13642;DHT22;6894;52.196;9.904;2023-05-07T03:58:53;10.00;99.90
13642;DHT22;6894;52.196;9.904;2023-05-07T04:01:20;10.10;99.90
13642;DHT22;6894;52.196;9.904;2023-05-07T04:03:46;10.00;99.90
13642;DHT22;6894;52.196;9.904;2023-05-07T04:06:15;10.00;99.90
13642;DHT22;6894;52.196;9.904;2023-05-07T04:08:42;10.00;99.90
13642;DHT22;6894;52.196;9.904;2023-05-07T04:11:08;9.90;99.90
13642;DHT22;6894;52.196;9.904;2023-05-07T04:13:35;10.00;99.90
13642;DHT22;6894;52.196;9.904;2023-05-07T04:16:04;9.90;99.90
13642;DHT22;6894;52.196;9.904;2023-05-07T04:18:31;9.90;99.90
13642;DHT22;6894;52.196;9.904;2023-05-07T04:20:58;10.00;99.90
13642;DHT22;6894;52.196;9.904;2023-05-07T04:23:25;9.90;99.90
13642;DHT22;6894;52.196;9.904;2023-05-07T04:25:51;9.90;99.90
13642;DHT22;6894;52.196;9.904;2023-05-07T04:28:19;9.90;99.90
13642;DHT22;6894;52.196;9.904;2023-05-07T04:30:46;9.90;99.90
13642;DHT22;6894;52.196;9.904;2023-05-07T04:33:15;9.90;99.90
13642;DHT22;6894;52.196;9.904;2023-05-07T04:35:42;9.90;99.90
13642;DHT22;6894;52.196;9.904;2023-05-07T04:38:09;9.90;99.90
13642;DHT22;6894;52.196;9.904;2023-05-07T04:40:36;10.00;99.90
13642;DHT22;6894;52.196;9.904;2023-05-07T04:43:04;10.00;99.90
13642;DHT22;6894;52.196;9.904;2023-05-07T04:45:31;9.90;99.90
13642;DHT22;6894;52.196;9.904;2023-05-07T04:47:58;9.90;99.90
13642;DHT22;6894;52.196;9.904;2023-05-07T04:50:26;9.90;99.90
13642;DHT22;6894;52.196;9.904;2023-05-07T04:52:53;9.90;99.90
13642;DHT22;6894;52.196;9.904;2023-05-07T04:55:20;9.90;99.90
13642;DHT22;6894;52.196;9.904;2023-05-07T04:57:46;9.90;99.90
13642;DHT22;6894;52.196;9.904;2023-05-07T05:00:14;10.00;99.90
13642;DHT22;6894;52.196;9.904;2023-05-07T05:02:42;9.90;99.90
13642;DHT22;6894;52.196;9.904;2023-05-07T05:05:09;10.00;99.90
13642;DHT22;6894;52.196;9.904;2023-05-07T05:07:37;9.90;99.90
13642;DHT22;6894;52.196;9.904;2023-05-07T05:10:05;10.00;99.90
13642;DHT22;6894;52.196;9.904;2023-05-07T05:12:32;10.00;99.90
13642;DHT22;6894;52.196;9.904;2023-05-07T05:14:59;10.00;99.90
13642;DHT22;6894;52.196;9.904;2023-05-07T05:17:25;10.00;99.90
13642;DHT22;6894;52.196;9.904;2023-05-07T05:19:52;10.10;99.90
13642;DHT22;6894;52.196;9.904;2023-05-07T05:22:19;10.00;99.90
13642;DHT22;6894;52.196;9.904;2023-05-07T05:24:47;10.00;99.90
13642;DHT22;6894;52.196;9.904;2023-05-07T05:27:14;10.00;99.90
13642;DHT22;6894;52.196;9.904;2023-05-07T05:29:41;10.10;99.90
13642;DHT22;6894;52.196;9.904;2023-05-07T05:32:07;10.10;99.90
13642;DHT22;6894;52.196;9.904;2023-05-07T05:34:34;10.00;99.90
13642;DHT22;6894;52.196;9.904;2023-05-07T05:37:01;10.00;99.90
13642;DHT22;6894;52.196;9.904;2023-05-07T05:39:28;10.00;99.90
13642;DHT22;6894;52.196;9.904;2023-05-07T05:41:56;10.10;99.90
13642;DHT22;6894;52.196;9.904;2023-05-07T05:44:23;10.00;99.90
13642;DHT22;6894;52.196;9.904;2023-05-07T05:46:49;10.00;99.90
13642;DHT22;6894;52.196;9.904;2023-05-07T05:49:16;10.10;99.90
13642;DHT22;6894;52.196;9.904;2023-05-07T05:51:43;10.00;99.90
13642;DHT22;6894;52.196;9.904;2023-05-07T05:54:10;10.00;99.90
13642;DHT22;6894;52.196;9.904;2023-05-07T05:56:37;10.10;99.90
13642;DHT22;6894;52.196;9.904;2023-05-07T05:59:05;10.10;99.90
13642;DHT22;6894;52.196;9.904;2023-05-07T06:01:32;10.10;99.90
13642;DHT22;6894;52.196;9.904;2023-05-07T06:03:59;10.10;99.90
13642;DHT22;6894;52.196;9.904;2023-05-07T06:06:26;10.10;99.90
13642;DHT22;6894;52.196;9.904;2023-05-07T06:08:53;10.20;99.90
13642;DHT22;6894;52.196;9.904;2023-05-07T06:11:20;10.20;99.90
13642;DHT22;6894;52.196;9.904;2023-05-07T06:13:47;10.30;99.90
13642;DHT22;6894;52.196;9.904;2023-05-07T06:16:15;10.30;99.90
13642;DHT22;6894;52.196;9.904;2023-05-07T06:18:42;10.40;99.90
13642;DHT22;6894;52.196;9.904;2023-05-07T06:21:09;10.40;99.90
13642;DHT22;6894;52.196;9.904;2023-05-07T06:23:36;10.40;99.90
13642;DHT22;6894;52.196;9.904;2023-05-07T06:26:03;10.50;99.90
13642;DHT22;6894;52.196;9.904;2023-05-07T06:28:30;10.60;99.90
13642;DHT22;6894;52.196;9.904;2023-05-07T06:31:11;10.70;99.90
13642;DHT22;6894;52.196;9.904;2023-05-07T06:33:39;10.70;99.90
13642;DHT22;6894;52.196;9.904;2023-05-07T06:36:06;10.80;99.90
13642;DHT22;6894;52.196;9.904;2023-05-07T06:38:33;10.80;99.90
13642;DHT22;6894;52.196;9.904;2023-05-07T06:41:00;11.00;99.90
13642;DHT22;6894;52.196;9.904;2023-05-07T06:43:27;11.10;99.90
13642;DHT22;6894;52.196;9.904;2023-05-07T06:45:53;11.00;99.90
13642;DHT22;6894;52.196;9.904;2023-05-07T06:48:20;11.00;99.90
13642;DHT22;6894;52.196;9.904;2023-05-07T06:50:48;11.10;99.90
13642;DHT22;6894;52.196;9.904;2023-05-07T06:53:15;11.30;99.90
13642;DHT22;6894;52.196;9.904;2023-05-07T06:55:42;11.40;99.90
13642;DHT22;6894;52.196;9.904;2023-05-07T06:58:09;11.60;99.90
13642;DHT22;6894;52.196;9.904;2023-05-07T07:00:35;11.80;99.90
13642;DHT22;6894;52.196;9.904;2023-05-07T07:03:02;11.90;99.90
13642;DHT22;6894;52.196;9.904;2023-05-07T07:05:29;12.00;99.90
13642;DHT22;6894;52.196;9.904;2023-05-07T07:07:57;12.00;99.90
13642;DHT22;6894;52.196;9.904;2023-05-07T07:10:24;12.10;99.90
13642;DHT22;6894;52.196;9.904;2023-05-07T07:12:51;12.30;99.90
13642;DHT22;6894;52.196;9.904;2023-05-07T07:15:19;12.40;99.90
13642;DHT22;6894;52.196;9.904;2023-05-07T07:17:46;12.30;99.90
13642;DHT22;6894;52.196;9.904;2023-05-07T07:20:13;12.30;99.90
13642;DHT22;6894;52.196;9.904;2023-05-07T07:22:39;12.40;99.90
13642;DHT22;6894;52.196;9.904;2023-05-07T07:25:08;12.50;99.90
13642;DHT22;6894;52.196;9.904;2023-05-07T07:27:36;12.60;99.90
13642;DHT22;6894;52.196;9.904;2023-05-07T07:30:04;12.70;99.90
13642;DHT22;6894;52.196;9.904;2023-05-07T07:32:31;12.80;99.90
13642;DHT22;6894;52.196;9.904;2023-05-07T07:34:58;12.60;99.90
13642;DHT22;6894;52.196;9.904;2023-05-07T07:37:25;12.60;99.90
13642;DHT22;6894;52.196;9.904;2023-05-07T07:39:52;12.40;99.90
13642;DHT22;6894;52.196;9.904;2023-05-07T07:42:20;12.40;99.90
13642;DHT22;6894;52.196;9.904;2023-05-07T07:44:47;12.30;99.90
13642;DHT22;6894;52.196;9.904;2023-05-07T07:47:14;12.40;99.90
13642;DHT22;6894;52.196;9.904;2023-05-07T07:49:41;12.60;99.90
13642;DHT22;6894;52.196;9.904;2023-05-07T07:52:07;12.80;99.90
13642;DHT22;6894;52.196;9.904;2023-05-07T07:54:34;13.00;99.90
13642;DHT22;6894;52.196;9.904;2023-05-07T07:57:01;13.10;99.90
13642;DHT22;6894;52.196;9.904;2023-05-07T07:59:29;13.10;99.90
13642;DHT22;6894;52.196;9.904;2023-05-07T08:01:56;13.10;99.90
13642;DHT22;6894;52.196;9.904;2023-05-07T08:04:23;13.20;99.90
13642;DHT22;6894;52.196;9.904;2023-05-07T08:06:49;13.10;99.90
13642;DHT22;6894;52.196;9.904;2023-05-07T08:09:16;13.10;1.00
13642;DHT22;6894;52.196;9.904;2023-05-07T08:11:43;13.10;1.00
13642;DHT22;6894;52.196;9.904;2023-05-07T08:14:10;13.00;99.90
13642;DHT22;6894;52.196;9.904;2023-05-07T08:16:38;13.00;99.90
13642;DHT22;6894;52.196;9.904;2023-05-07T08:19:05;13.00;99.90
13642;DHT22;6894;52.196;9.904;2023-05-07T08:21:32;13.00;99.90
13642;DHT22;6894;52.196;9.904;2023-05-07T08:23:59;12.90;99.90
13642;DHT22;6894;52.196;9.904;2023-05-07T08:26:25;12.80;99.90
13642;DHT22;6894;52.196;9.904;2023-05-07T08:28:52;12.70;99.90
13642;DHT22;6894;52.196;9.904;2023-05-07T08:31:19;12.60;1.00
13642;DHT22;6894;52.196;9.904;2023-05-07T08:33:47;12.70;1.00
13642;DHT22;6894;52.196;9.904;2023-05-07T08:36:14;12.80;99.90
13642;DHT22;6894;52.196;9.904;2023-05-07T08:38:40;13.00;99.90
13642;DHT22;6894;52.196;9.904;2023-05-07T08:41:10;13.10;1.00
13642;DHT22;6894;52.196;9.904;2023-05-07T08:43:38;13.20;57.20
13642;DHT22;6894;52.196;9.904;2023-05-07T08:46:09;13.10;1.00
13642;DHT22;6894;52.196;9.904;2023-05-07T08:48:36;13.10;1.00
13642;DHT22;6894;52.196;9.904;2023-05-07T08:51:05;13.10;1.00
13642;DHT22;6894;52.196;9.904;2023-05-07T08:53:33;13.20;99.90
13642;DHT22;6894;52.196;9.904;2023-05-07T08:56:00;13.20;99.90
13642;DHT22;6894;52.196;9.904;2023-05-07T08:58:27;13.20;99.90
13642;DHT22;6894;52.196;9.904;2023-05-07T09:00:54;13.10;99.90
13642;DHT22;6894;52.196;9.904;2023-05-07T09:03:21;12.90;99.90
13642;DHT22;6894;52.196;9.904;2023-05-07T09:05:47;13.10;99.90
13642;DHT22;6894;52.196;9.904;2023-05-07T09:08:16;13.00;1.00
13642;DHT22;6894;52.196;9.904;2023-05-07T09:10:42;13.00;1.00
13642;DHT22;6894;52.196;9.904;2023-05-07T09:13:11;13.00;1.00
13642;DHT22;6894;52.196;9.904;2023-05-07T09:15:39;13.10;99.90
13642;DHT22;6894;52.196;9.904;2023-05-07T09:18:06;13.10;1.00
13642;DHT22;6894;52.196;9.904;2023-05-07T09:20:33;13.30;1.00
13642;DHT22;6894;52.196;9.904;2023-05-07T09:23:00;13.30;1.00
13642;DHT22;6894;52.196;9.904;2023-05-07T09:25:32;13.40;1.00
13642;DHT22;6894;52.196;9.904;2023-05-07T09:28:00;13.40;99.90
13642;DHT22;6894;52.196;9.904;2023-05-07T09:30:28;13.40;1.00
13642;DHT22;6894;52.196;9.904;2023-05-07T09:32:55;13.50;1.00
13642;DHT22;6894;52.196;9.904;2023-05-07T09:35:22;13.60;99.90
13642;DHT22;6894;52.196;9.904;2023-05-07T09:37:52;13.70;99.90
13642;DHT22;6894;52.196;9.904;2023-05-07T09:40:21;13.70;1.00
13642;DHT22;6894;52.196;9.904;2023-05-07T09:42:50;13.60;1.00
13642;DHT22;6894;52.196;9.904;2023-05-07T09:45:21;13.60;99.90
13642;DHT22;6894;52.196;9.904;2023-05-07T09:47:48;13.70;99.90
13642;DHT22;6894;52.196;9.904;2023-05-07T09:50:16;13.70;98.90
13642;DHT22;6894;52.196;9.904;2023-05-07T09:52:44;13.70;1.00
13642;DHT22;6894;52.196;9.904;2023-05-07T09:55:12;13.80;1.00
13642;DHT22;6894;52.196;9.904;2023-05-07T09:57:40;13.70;1.00
13642;DHT22;6894;52.196;9.904;2023-05-07T10:00:11;13.70;1.00
13642;DHT22;6894;52.196;9.904;2023-05-07T10:02:39;13.60;99.90
13642;DHT22;6894;52.196;9.904;2023-05-07T10:05:12;13.70;1.00
13642;DHT22;6894;52.196;9.904;2023-05-07T10:07:39;13.80;64.90
13642;DHT22;6894;52.196;9.904;2023-05-07T10:10:07;13.90;1.00
13642;DHT22;6894;52.196;9.904;2023-05-07T10:12:35;13.80;99.90
13642;DHT22;6894;52.196;9.904;2023-05-07T10:15:06;13.90;1.00
13642;DHT22;6894;52.196;9.904;2023-05-07T10:17:36;13.80;1.00
13642;DHT22;6894;52.196;9.904;2023-05-07T10:20:03;13.80;1.00
13642;DHT22;6894;52.196;9.904;2023-05-07T10:22:36;13.90;21.40
13642;DHT22;6894;52.196;9.904;2023-05-07T10:25:05;13.90;1.00
13642;DHT22;6894;52.196;9.904;2023-05-07T10:27:33;14.00;99.90
13642;DHT22;6894;52.196;9.904;2023-05-07T10:30:05;14.00;99.90
13642;DHT22;6894;52.196;9.904;2023-05-07T10:32:40;14.00;88.00
13642;DHT22;6894;52.196;9.904;2023-05-07T10:35:15;14.10;99.90
13642;DHT22;6894;52.196;9.904;2023-05-07T10:37:42;14.10;1.00
13642;DHT22;6894;52.196;9.904;2023-05-07T10:40:11;14.20;1.00
13642;DHT22;6894;52.196;9.904;2023-05-07T10:42:38;14.10;99.90
13642;DHT22;6894;52.196;9.904;2023-05-07T10:45:12;13.90;1.00
13642;DHT22;6894;52.196;9.904;2023-05-07T10:48:08;14.20;99.90
13642;DHT22;6894;52.196;9.904;2023-05-07T10:50:36;13.90;1.00
13642;DHT22;6894;52.196;9.904;2023-05-07T10:53:21;13.90;1.00
13642;DHT22;6894;52.196;9.904;2023-05-07T10:55:51;13.90;1.00
13642;DHT22;6894;52.196;9.904;2023-05-07T10:58:24;14.10;1.00
13642;DHT22;6894;52.196;9.904;2023-05-07T11:00:56;14.30;99.90
13642;DHT22;6894;52.196;9.904;2023-05-07T11:03:24;14.40;1.00
13642;DHT22;6894;52.196;9.904;2023-05-07T11:06:10;14.50;99.90
13642;DHT22;6894;52.196;9.904;2023-05-07T11:08:53;14.50;99.90
13642;DHT22;6894;52.196;9.904;2023-05-07T11:11:46;14.60;1.00
13642;DHT22;6894;52.196;9.904;2023-05-07T11:14:13;14.60;99.90
13642;DHT22;6894;52.196;9.904;2023-05-07T11:16:41;14.50;1.00
13642;DHT22;6894;52.196;9.904;2023-05-07T11:19:11;14.60;1.00
13642;DHT22;6894;52.196;9.904;2023-05-07T11:21:39;14.70;1.00
13642;DHT22;6894;52.196;9.904;2023-05-07T11:24:06;14.50;1.00
13642;DHT22;6894;52.196;9.904;2023-05-07T11:26:45;14.60;99.90
13642;DHT22;6894;52.196;9.904;2023-05-07T11:29:13;14.70;1.00
13642;DHT22;6894;52.196;9.904;2023-05-07T11:31:40;14.70;1.00
13642;DHT22;6894;52.196;9.904;2023-05-07T11:34:07;14.70;99.90
13642;DHT22;6894;52.196;9.904;2023-05-07T11:36:41;14.90;1.00
13642;DHT22;6894;52.196;9.904;2023-05-07T11:39:26;14.80;1.00
13642;DHT22;6894;52.196;9.904;2023-05-07T11:41:53;14.80;1.00
13642;DHT22;6894;52.196;9.904;2023-05-07T11:44:20;14.90;1.00
13642;DHT22;6894;52.196;9.904;2023-05-07T11:46:47;14.70;1.00
13642;DHT22;6894;52.196;9.904;2023-05-07T11:49:14;14.60;1.00
13642;DHT22;6894;52.196;9.904;2023-05-07T11:51:43;14.60;1.00
13642;DHT22;6894;52.196;9.904;2023-05-07T11:54:15;14.70;1.00
13642;DHT22;6894;52.196;9.904;2023-05-07T11:56:44;14.70;99.90
13642;DHT22;6894;52.196;9.904;2023-05-07T11:59:11;14.80;1.00
13642;DHT22;6894;52.196;9.904;2023-05-07T12:01:38;14.80;1.00
13642;DHT22;6894;52.196;9.904;2023-05-07T12:04:05;14.90;1.00
13642;DHT22;6894;52.196;9.904;2023-05-07T12:06:36;15.00;1.00
13642;DHT22;6894;52.196;9.904;2023-05-07T12:09:04;15.00;1.00
13642;DHT22;6894;52.196;9.904;2023-05-07T12:11:32;15.20;1.00
13642;DHT22;6894;52.196;9.904;2023-05-07T12:13:59;15.30;99.90
13642;DHT22;6894;52.196;9.904;2023-05-07T12:16:26;15.40;58.40
13642;DHT22;6894;52.196;9.904;2023-05-07T12:18:53;15.40;1.00
13642;DHT22;6894;52.196;9.904;2023-05-07T12:21:20;15.30;1.00
13642;DHT22;6894;52.196;9.904;2023-05-07T12:23:48;15.30;11.40
13642;DHT22;6894;52.196;9.904;2023-05-07T12:26:16;15.30;44.50
13642;DHT22;6894;52.196;9.904;2023-05-07T12:28:43;15.40;99.90
13642;DHT22;6894;52.196;9.904;2023-05-07T12:31:09;15.30;1.00
13642;DHT22;6894;52.196;9.904;2023-05-07T12:33:36;15.30;99.90
13642;DHT22;6894;52.196;9.904;2023-05-07T12:36:05;15.40;1.00
13642;DHT22;6894;52.196;9.904;2023-05-07T12:38:39;15.40;99.90
13642;DHT22;6894;52.196;9.904;2023-05-07T12:41:07;15.60;1.00
13642;DHT22;6894;52.196;9.904;2023-05-07T12:43:35;15.60;99.90
13642;DHT22;6894;52.196;9.904;2023-05-07T12:46:04;15.50;1.00
13642;DHT22;6894;52.196;9.904;2023-05-07T12:48:31;15.50;1.00
13642;DHT22;6894;52.196;9.904;2023-05-07T12:51:00;15.60;99.90
13642;DHT22;6894;52.196;9.904;2023-05-07T12:53:28;15.60;99.90
13642;DHT22;6894;52.196;9.904;2023-05-07T12:55:56;15.60;99.90
13642;DHT22;6894;52.196;9.904;2023-05-07T12:58:25;15.70;1.00
13642;DHT22;6894;52.196;9.904;2023-05-07T13:00:54;15.60;99.90
13642;DHT22;6894;52.196;9.904;2023-05-07T13:03:25;15.50;99.90
13642;DHT22;6894;52.196;9.904;2023-05-07T13:05:53;15.70;1.00
13642;DHT22;6894;52.196;9.904;2023-05-07T13:08:28;16.20;1.00
13642;DHT22;6894;52.196;9.904;2023-05-07T13:10:55;16.50;1.00
13642;DHT22;6894;52.196;9.904;2023-05-07T13:13:22;16.60;1.00
13642;DHT22;6894;52.196;9.904;2023-05-07T13:15:48;16.80;99.90
13642;DHT22;6894;52.196;9.904;2023-05-07T13:18:17;16.70;82.30
13642;DHT22;6894;52.196;9.904;2023-05-07T13:20:43;17.30;1.00
13642;DHT22;6894;52.196;9.904;2023-05-07T13:23:10;17.30;99.90
13642;DHT22;6894;52.196;9.904;2023-05-07T13:25:37;17.50;99.90
13642;DHT22;6894;52.196;9.904;2023-05-07T13:28:04;17.50;1.00
13642;DHT22;6894;52.196;9.904;2023-05-07T13:30:31;17.40;24.60
13642;DHT22;6894;52.196;9.904;2023-05-07T13:32:57;17.50;99.90
13642;DHT22;6894;52.196;9.904;2023-05-07T13:35:26;17.70;1.00
13642;DHT22;6894;52.196;9.904;2023-05-07T13:37:53;17.80;1.00
13642;DHT22;6894;52.196;9.904;2023-05-07T13:40:21;17.70;1.00
13642;DHT22;6894;52.196;9.904;2023-05-07T13:42:48;17.70;1.00
13642;DHT22;6894;52.196;9.904;2023-05-07T13:45:16;17.50;1.00
13642;DHT22;6894;52.196;9.904;2023-05-07T13:47:43;17.40;99.90
13642;DHT22;6894;52.196;9.904;2023-05-07T13:50:10;17.10;1.00
13642;DHT22;6894;52.196;9.904;2023-05-07T13:52:40;17.10;1.00
13642;DHT22;6894;52.196;9.904;2023-05-07T13:55:08;17.20;99.90
13642;DHT22;6894;52.196;9.904;2023-05-07T13:57:35;17.20;1.00
13642;DHT22;6894;52.196;9.904;2023-05-07T14:00:03;17.30;1.00
13642;DHT22;6894;52.196;9.904;2023-05-07T14:02:30;17.50;99.90
13642;DHT22;6894;52.196;9.904;2023-05-07T14:04:57;17.60;1.00
13642;DHT22;6894;52.196;9.904;2023-05-07T14:07:24;17.50;1.00
13642;DHT22;6894;52.196;9.904;2023-05-07T14:09:52;17.40;1.00
13642;DHT22;6894;52.196;9.904;2023-05-07T14:12:19;17.30;9.30
13642;DHT22;6894;52.196;9.904;2023-05-07T14:14:47;17.30;1.00
13642;DHT22;6894;52.196;9.904;2023-05-07T14:17:15;17.30;99.90
13642;DHT22;6894;52.196;9.904;2023-05-07T14:19:42;17.30;1.00
13642;DHT22;6894;52.196;9.904;2023-05-07T14:22:09;17.10;1.00
13642;DHT22;6894;52.196;9.904;2023-05-07T14:24:36;17.00;99.90
13642;DHT22;6894;52.196;9.904;2023-05-07T14:27:05;17.20;1.00
13642;DHT22;6894;52.196;9.904;2023-05-07T14:29:32;17.00;99.90
13642;DHT22;6894;52.196;9.904;2023-05-07T14:32:00;17.10;99.90
13642;DHT22;6894;52.196;9.904;2023-05-07T14:34:27;17.30;1.00
13642;DHT22;6894;52.196;9.904;2023-05-07T14:36:54;17.40;1.00
13642;DHT22;6894;52.196;9.904;2023-05-07T14:39:21;17.40;1.00
13642;DHT22;6894;52.196;9.904;2023-05-07T14:41:48;17.40;1.00
13642;DHT22;6894;52.196;9.904;2023-05-07T14:44:16;17.40;1.00
13642;DHT22;6894;52.196;9.904;2023-05-07T14:46:43;17.20;99.90
13642;DHT22;6894;52.196;9.904;2023-05-07T14:49:10;17.30;99.90
13642;DHT22;6894;52.196;9.904;2023-05-07T14:51:42;17.30;1.00
13642;DHT22;6894;52.196;9.904;2023-05-07T14:54:09;17.40;1.00
13642;DHT22;6894;52.196;9.904;2023-05-07T14:56:36;17.30;5.40
13642;DHT22;6894;52.196;9.904;2023-05-07T14:59:03;17.30;1.00
13642;DHT22;6894;52.196;9.904;2023-05-07T15:01:31;17.30;99.90
13642;DHT22;6894;52.196;9.904;2023-05-07T15:03:59;17.00;99.90
13642;DHT22;6894;52.196;9.904;2023-05-07T15:06:26;16.90;1.00
13642;DHT22;6894;52.196;9.904;2023-05-07T15:08:53;16.80;99.90
13642;DHT22;6894;52.196;9.904;2023-05-07T15:11:19;16.60;1.00
13642;DHT22;6894;52.196;9.904;2023-05-07T15:13:46;16.60;1.00
13642;DHT22;6894;52.196;9.904;2023-05-07T15:16:13;16.50;1.00
13642;DHT22;6894;52.196;9.904;2023-05-07T15:18:42;16.50;1.00
13642;DHT22;6894;52.196;9.904;2023-05-07T15:21:08;16.50;1.00
13642;DHT22;6894;52.196;9.904;2023-05-07T15:23:35;16.40;52.40
13642;DHT22;6894;52.196;9.904;2023-05-07T15:26:03;16.60;1.00
13642;DHT22;6894;52.196;9.904;2023-05-07T15:28:30;16.60;99.90
13642;DHT22;6894;52.196;9.904;2023-05-07T15:30:57;16.60;99.90
13642;DHT22;6894;52.196;9.904;2023-05-07T15:33:24;16.70;99.90
13642;DHT22;6894;52.196;9.904;2023-05-07T15:35:52;16.50;1.00
13642;DHT22;6894;52.196;9.904;2023-05-07T15:38:19;16.60;1.00
13642;DHT22;6894;52.196;9.904;2023-05-07T15:40:46;16.60;99.90
13642;DHT22;6894;52.196;9.904;2023-05-07T15:43:12;16.40;1.00
13642;DHT22;6894;52.196;9.904;2023-05-07T15:45:40;16.40;1.00
13642;DHT22;6894;52.196;9.904;2023-05-07T15:48:07;16.30;1.00
13642;DHT22;6894;52.196;9.904;2023-05-07T15:50:34;16.30;1.00
13642;DHT22;6894;52.196;9.904;2023-05-07T15:53:02;16.20;1.00
13642;DHT22;6894;52.196;9.904;2023-05-07T15:55:29;16.10;1.00